createdAt,value
2023-04-07T00:01:46.405Z,101400.09
2023-04-07T00:04:13.823Z,101403.59
2023-04-07T00:06:43.644Z,101405.13
2023-04-07T00:09:11.408Z,101397.03
2023-04-07T00:11:38.445Z,101403.41
2023-04-07T00:14:05.809Z,101400.94
2023-04-07T00:16:32.906Z,101402.03
2023-04-07T00:19:04.481Z,101393.06
2023-04-07T00:21:33.631Z,101398.66
2023-04-07T00:24:05.998Z,101401.09
2023-04-07T00:26:35.571Z,101392.72
2023-04-07T00:29:02.596Z,101393.66
2023-04-07T00:31:32.610Z,101397.41
2023-04-07T00:33:59.745Z,101396.06
2023-04-07T00:36:27.092Z,101399.66
2023-04-07T00:38:59.364Z,101390.25
2023-04-07T00:41:26.295Z,101391.09
2023-04-07T00:43:55.830Z,101386.63
2023-04-07T00:46:26.467Z,101389.81
2023-04-07T00:48:53.808Z,101395.81
2023-04-07T00:51:22.694Z,101386.63
2023-04-07T00:53:50.538Z,101375.97
2023-04-07T00:56:17.546Z,101385.56
2023-04-07T00:58:44.390Z,101382.94
2023-04-07T01:01:27.763Z,101382.22
2023-04-07T01:04:34.657Z,101392.13
2023-04-07T01:07:12.024Z,101381.78
2023-04-07T01:09:51.657Z,101393.34
2023-04-07T01:12:39.358Z,101384.06
2023-04-07T01:15:14.404Z,101381.88
2023-04-07T01:17:46.918Z,101380.19
2023-04-07T01:20:20.798Z,101390.38
2023-04-07T01:22:54.572Z,101387.03
2023-04-07T01:25:34.379Z,101390.75
2023-04-07T01:28:14.684Z,101390.50
2023-04-07T01:30:43.565Z,101388.28
2023-04-07T01:33:12.240Z,101380.47
2023-04-07T01:35:42.979Z,101389.75
2023-04-07T01:38:10.963Z,101382.16
2023-04-07T01:40:41.520Z,101388.50
2023-04-07T01:43:09.251Z,101380.53
2023-04-07T01:45:37.295Z,101385.28
2023-04-07T01:48:07.630Z,101382.25
2023-04-07T01:50:37.351Z,101384.94
2023-04-07T01:53:05.165Z,101379.59
2023-04-07T01:55:34.991Z,101386.16
2023-04-07T01:58:10.676Z,101386.53
2023-04-07T02:00:38.009Z,101383.38
2023-04-07T02:03:21.242Z,101384.09
2023-04-07T02:05:55.274Z,101396.69
2023-04-07T02:08:27.759Z,101382.38
2023-04-07T02:10:57.047Z,101387.41
2023-04-07T02:13:30.174Z,101388.41
2023-04-07T02:15:58.380Z,101379.97
2023-04-07T02:18:28.030Z,101390.50
2023-04-07T02:20:58.865Z,101395.16
2023-04-07T02:23:26.152Z,101398.09
2023-04-07T02:25:58.190Z,101390.03
2023-04-07T02:28:27.932Z,101397.00
2023-04-07T02:30:58.317Z,101385.38
2023-04-07T02:33:25.638Z,101391.25
2023-04-07T02:35:52.837Z,101397.47
2023-04-07T02:38:22.009Z,101401.28
2023-04-07T02:40:49.399Z,101401.50
2023-04-07T02:43:17.665Z,101396.50
2023-04-07T02:45:44.686Z,101397.59
2023-04-07T02:48:13.877Z,101401.38
2023-04-07T02:50:42.009Z,101405.16
2023-04-07T02:53:10.370Z,101402.00
2023-04-07T02:55:37.593Z,101396.38
2023-04-07T02:58:07.259Z,101397.13
2023-04-07T03:00:35.044Z,101401.75
2023-04-07T03:03:05.861Z,101400.78
2023-04-07T03:05:35.408Z,101401.75
2023-04-07T03:08:02.564Z,101400.06
2023-04-07T03:10:39.847Z,101399.56
2023-04-07T03:13:08.557Z,101397.13
2023-04-07T03:15:35.884Z,101399.31
2023-04-07T03:18:03.143Z,101398.94
2023-04-07T03:20:32.894Z,101400.78
2023-04-07T03:23:00.534Z,101398.56
2023-04-07T03:25:27.811Z,101404.69
2023-04-07T03:27:57.183Z,101392.22
2023-04-07T03:30:27.501Z,101394.38
2023-04-07T03:32:56.995Z,101401.63
2023-04-07T03:35:24.065Z,101401.97
2023-04-07T03:37:53.164Z,101401.47
2023-04-07T03:40:23.132Z,101411.41
2023-04-07T03:42:52.741Z,101412.50
2023-04-07T03:45:20.069Z,101412.88
2023-04-07T03:47:47.563Z,101418.75
2023-04-07T03:50:17.021Z,101420.13
2023-04-07T03:52:44.471Z,101423.78
2023-04-07T03:55:13.918Z,101422.81
2023-04-07T03:57:40.955Z,101424.75
2023-04-07T04:00:09.294Z,101429.41
2023-04-07T04:02:39.088Z,101427.22
2023-04-07T04:05:09.627Z,101430.38
2023-04-07T04:07:36.879Z,101429.03
2023-04-07T04:10:07.297Z,101430.38
2023-04-07T04:12:37.045Z,101434.78
2023-04-07T04:15:04.906Z,101442.63
2023-04-07T04:17:34.804Z,101439.31
2023-04-07T04:20:05.117Z,101441.63
2023-04-07T04:22:32.274Z,101436.63
2023-04-07T04:25:02.675Z,101442.63
2023-04-07T04:27:31.995Z,101438.22
2023-04-07T04:29:59.462Z,101457.06
2023-04-07T04:32:31.198Z,101451.44
2023-04-07T04:35:00.616Z,101454.72
2023-04-07T04:37:30.043Z,101458.66
2023-04-07T04:40:02.101Z,101449.47
2023-04-07T04:42:33.855Z,101457.53
2023-04-07T04:45:01.325Z,101465.13
2023-04-07T04:47:28.360Z,101460.22
2023-04-07T04:49:55.575Z,101463.66
2023-04-07T04:52:22.636Z,101462.94
2023-04-07T04:54:49.652Z,101464.13
2023-04-07T04:57:17.003Z,101461.06
2023-04-07T04:59:47.001Z,101467.56
2023-04-07T05:02:14.028Z,101475.88
2023-04-07T05:04:41.633Z,101470.25
2023-04-07T05:07:08.644Z,101467.53
2023-04-07T05:09:35.918Z,101472.94
2023-04-07T05:12:03.058Z,101477.34
2023-04-07T05:14:30.179Z,101472.44
2023-04-07T05:17:00.999Z,101474.66
2023-04-07T05:19:29.788Z,101480.06
2023-04-07T05:21:56.724Z,101487.88
2023-04-07T05:24:26.215Z,101486.91
2023-04-07T05:26:57.173Z,101474.69
2023-04-07T05:29:24.309Z,101486.91
2023-04-07T05:31:55.967Z,101493.03
2023-04-07T05:34:23.094Z,101494.13
2023-04-07T05:36:50.121Z,101493.00
2023-04-07T05:39:17.226Z,101501.59
2023-04-07T05:41:44.183Z,101495.94
2023-04-07T05:44:11.144Z,101493.00
2023-04-07T05:46:40.384Z,101501.34
2023-04-07T05:51:45.847Z,101505.47
2023-04-07T05:54:13.726Z,101502.56
2023-04-07T05:56:43.272Z,101513.09
2023-04-07T05:59:17.214Z,101521.16
2023-04-07T06:01:44.430Z,101514.06
2023-04-07T06:04:14.198Z,101514.84
2023-04-07T06:06:41.292Z,101518.16
2023-04-07T06:09:08.487Z,101522.78
2023-04-07T06:11:37.676Z,101516.91
2023-04-07T06:14:04.618Z,101523.66
2023-04-07T06:16:34.475Z,101524.34
2023-04-07T06:19:01.862Z,101529.81
2023-04-07T06:21:31.588Z,101527.13
2023-04-07T06:24:02.217Z,101531.78
2023-04-07T06:26:34.483Z,101533.88
2023-04-07T06:29:01.632Z,101538.63
2023-04-07T06:31:33.368Z,101531.25
2023-04-07T06:34:02.577Z,101538.56
2023-04-07T06:36:33.122Z,101535.91
2023-04-07T06:39:05.310Z,101540.94
2023-04-07T06:41:34.584Z,101545.41
2023-04-07T06:44:04.701Z,101543.19
2023-04-07T06:46:32.065Z,101543.97
2023-04-07T06:49:01.712Z,101550.88
2023-04-07T06:51:28.719Z,101547.91
2023-04-07T06:53:56.123Z,101542.91
2023-04-07T06:56:24.800Z,101544.13
2023-04-07T06:58:51.753Z,101547.00
2023-04-07T07:01:23.312Z,101548.34
2023-04-07T07:03:50.713Z,101558.28
2023-04-07T07:06:17.991Z,101557.59
2023-04-07T07:08:47.512Z,101548.03
2023-04-07T07:11:16.862Z,101550.03
2023-04-07T07:13:45.178Z,101555.44
2023-04-07T07:16:17.749Z,101552.25
2023-04-07T07:18:47.020Z,101551.66
2023-04-07T07:21:17.839Z,101559.44
2023-04-07T07:23:47.471Z,101559.44
2023-04-07T07:26:14.694Z,101564.47
2023-04-07T07:28:41.649Z,101561.72
2023-04-07T07:31:13.187Z,101570.56
2023-04-07T07:33:41.710Z,101570.41
2023-04-07T07:36:09.320Z,101562.78
2023-04-07T07:38:37.741Z,101567.28
2023-04-07T07:41:06.773Z,101572.44
2023-04-07T07:43:37.156Z,101573.16
2023-04-07T07:46:06.824Z,101577.75
2023-04-07T07:48:33.912Z,101581.75
2023-04-07T07:51:01.003Z,101573.22
2023-04-07T07:53:30.701Z,101584.88
2023-04-07T07:55:58.129Z,101588.00
2023-04-07T07:58:25.527Z,101588.97
2023-04-07T08:00:52.548Z,101589.75
2023-04-07T08:03:24.708Z,101587.44
2023-04-07T08:05:51.844Z,101595.88
2023-04-07T08:08:18.893Z,101592.94
2023-04-07T08:10:48.984Z,101602.09
2023-04-07T08:13:16.255Z,101600.47
2023-04-07T08:15:43.402Z,101597.44
2023-04-07T08:18:12.715Z,101600.59
2023-04-07T08:20:42.566Z,101604.28
2023-04-07T08:23:12.237Z,101611.94
2023-04-07T08:25:42.323Z,101604.28
2023-04-07T08:28:09.283Z,101615.53
2023-04-07T08:30:36.530Z,101614.16
2023-04-07T08:33:06.271Z,101609.03
2023-04-07T08:35:33.558Z,101600.56
2023-04-07T08:38:03.565Z,101605.97
2023-04-07T08:40:32.893Z,101609.06
2023-04-07T08:43:01.515Z,101611.19
2023-04-07T08:45:31.945Z,101611.03
2023-04-07T08:48:07.950Z,101606.91
2023-04-07T08:50:35.426Z,101614.13
2023-04-07T08:53:12.022Z,101617.41
2023-04-07T08:55:39.095Z,101619.06
2023-04-07T08:58:06.249Z,101608.88
2023-04-07T09:00:37.782Z,101615.59
2023-04-07T09:03:05.233Z,101621.66
2023-04-07T09:05:34.901Z,101606.69
2023-04-07T09:08:06.737Z,101615.16
2023-04-07T09:10:36.246Z,101609.63
2023-04-07T09:13:03.344Z,101608.00
2023-04-07T09:15:41.521Z,101618.59
2023-04-07T09:18:10.968Z,101610.53
2023-04-07T09:21:01.308Z,101612.28
2023-04-07T09:23:30.598Z,101621.97
2023-04-07T09:26:01.523Z,101614.09
2023-04-07T09:28:49.066Z,101619.88
2023-04-07T09:31:21.316Z,101616.53
2023-04-07T09:33:51.835Z,101612.75
2023-04-07T09:36:21.151Z,101609.84
2023-04-07T09:38:48.152Z,101603.44
2023-04-07T09:41:19.181Z,101609.31
2023-04-07T09:43:47.640Z,101606.25
2023-04-07T09:46:19.192Z,101615.97
2023-04-07T09:48:48.607Z,101611.69
2023-04-07T09:51:21.336Z,101618.44
2023-04-07T09:53:56.559Z,101603.97
2023-04-07T09:56:24.013Z,101604.44
2023-04-07T09:58:52.106Z,101611.97
2023-04-07T10:01:22.009Z,101606.28
2023-04-07T10:03:50.933Z,101598.63
2023-04-07T10:06:20.673Z,101599.91
2023-04-07T10:08:50.026Z,101601.44
2023-04-07T10:11:18.672Z,101600.91
2023-04-07T10:13:46.206Z,101607.03
2023-04-07T10:16:13.615Z,101609.69
2023-04-07T10:18:46.599Z,101608.66
2023-04-07T10:21:16.463Z,101608.13
2023-04-07T10:24:24.482Z,101614.34
2023-04-07T10:26:56.990Z,101598.22
2023-04-07T10:29:32.134Z,101610.13
2023-04-07T10:32:01.758Z,101612.25
2023-04-07T10:34:50.496Z,101609.75
2023-04-07T10:37:21.253Z,101609.09
2023-04-07T10:40:21.579Z,101612.53
2023-04-07T10:42:51.952Z,101610.97
2023-04-07T10:45:54.292Z,101616.09
2023-04-07T10:48:28.448Z,101615.09
2023-04-07T10:51:12.550Z,101611.47
2023-04-07T10:54:17.966Z,101610.38
2023-04-07T10:57:03.255Z,101619.97
2023-04-07T10:59:31.236Z,101607.50
2023-04-07T11:02:16.586Z,101601.69
2023-04-07T11:04:46.103Z,101598.13
2023-04-07T11:07:15.803Z,101598.22
2023-04-07T11:09:42.909Z,101602.13
2023-04-07T11:12:22.721Z,101596.22
2023-04-07T11:14:52.250Z,101586.75
2023-04-07T11:17:21.697Z,101604.44
2023-04-07T11:19:54.629Z,101608.31
2023-04-07T11:22:29.971Z,101597.97
2023-04-07T11:24:57.713Z,101610.66
2023-04-07T11:27:24.723Z,101607.94
2023-04-07T11:29:54.315Z,101597.19
2023-04-07T11:32:26.166Z,101605.06
2023-04-07T11:34:56.030Z,101607.19
2023-04-07T11:37:31.380Z,101602.44
2023-04-07T11:40:01.723Z,101604.28
2023-04-07T11:42:37.405Z,101591.91
2023-04-07T11:45:08.355Z,101596.72
2023-04-07T11:47:38.650Z,101598.44
2023-04-07T11:50:08.974Z,101585.75
2023-04-07T11:52:44.880Z,101591.28
2023-04-07T11:55:24.538Z,101588.25
2023-04-07T11:57:52.470Z,101590.06
2023-04-07T12:00:22.356Z,101597.69
2023-04-07T12:02:49.725Z,101599.31
2023-04-07T12:05:17.235Z,101606.38
2023-04-07T12:07:54.618Z,101609.19
2023-04-07T12:10:27.760Z,101603.69
2023-04-07T12:12:55.238Z,101608.38
2023-04-07T12:15:25.027Z,101608.78
2023-04-07T12:17:52.040Z,101606.13
2023-04-07T12:20:19.149Z,101612.66
2023-04-07T12:22:46.354Z,101596.25
2023-04-07T12:25:13.306Z,101609.28
2023-04-07T12:27:43.906Z,101608.50
2023-04-07T12:30:12.944Z,101606.94
2023-04-07T12:32:42.782Z,101607.50
2023-04-07T12:35:12.887Z,101607.50
2023-04-07T12:37:40.003Z,101604.22
2023-04-07T12:40:12.142Z,101607.22
2023-04-07T12:42:41.744Z,101602.09
2023-04-07T12:45:09.122Z,101596.84
2023-04-07T12:47:38.307Z,101612.03
2023-04-07T12:50:06.146Z,101605.91
2023-04-07T12:52:33.383Z,101595.88
2023-04-07T12:55:00.352Z,101611.09
2023-04-07T12:57:27.660Z,101617.59
2023-04-07T12:59:57.184Z,101604.38
2023-04-07T13:02:26.837Z,101599.81
2023-04-07T13:04:56.280Z,101600.84
2023-04-07T13:07:23.552Z,101599.94
2023-04-07T13:09:53.015Z,101613.41
2023-04-07T13:12:24.928Z,101605.88
2023-04-07T13:15:00.528Z,101601.84
2023-04-07T13:17:29.063Z,101600.56
2023-04-07T13:19:59.215Z,101596.09
2023-04-07T13:22:26.282Z,101596.22
2023-04-07T13:24:55.669Z,101594.66
2023-04-07T13:27:25.018Z,101597.34
2023-04-07T13:29:55.035Z,101600.69
2023-04-07T13:32:22.080Z,101603.50
2023-04-07T13:34:49.404Z,101608.00
2023-04-07T13:37:19.607Z,101604.06
2023-04-07T13:39:46.710Z,101609.50
2023-04-07T13:42:17.500Z,101604.72
2023-04-07T13:44:48.184Z,101600.25
2023-04-07T13:47:19.451Z,101602.78
2023-04-07T13:49:48.203Z,101600.19
2023-04-07T13:52:19.855Z,101596.31
2023-04-07T13:54:47.037Z,101603.66
2023-04-07T13:57:20.545Z,101599.78
2023-04-07T13:59:49.646Z,101600.41
2023-04-07T14:02:17.300Z,101606.03
2023-04-07T14:04:44.694Z,101597.31
2023-04-07T14:07:14.258Z,101604.66
2023-04-07T14:09:43.644Z,101601.72
2023-04-07T14:12:10.737Z,101598.63
2023-04-07T14:14:38.771Z,101601.34
2023-04-07T14:17:08.253Z,101584.81
2023-04-07T14:19:35.738Z,101593.09
2023-04-07T14:22:08.182Z,101591.00
2023-04-07T14:24:35.162Z,101582.94
2023-04-07T14:27:04.013Z,101589.00
2023-04-07T14:29:31.211Z,101594.38
2023-04-07T14:32:00.807Z,101594.66
2023-04-07T14:34:33.249Z,101594.38
2023-04-07T14:37:03.510Z,101602.47
2023-04-07T14:39:32.797Z,101599.84
2023-04-07T14:42:02.206Z,101605.59
2023-04-07T14:44:29.168Z,101606.97
2023-04-07T14:46:56.297Z,101607.22
2023-04-07T14:49:25.105Z,101609.66
2023-04-07T14:51:55.199Z,101619.44
2023-04-07T14:54:23.307Z,101610.16
2023-04-07T14:56:50.639Z,101618.47
2023-04-07T14:59:19.926Z,101622.16
2023-04-07T15:01:47.040Z,101621.19
2023-04-07T15:04:14.281Z,101613.91
2023-04-07T15:06:47.302Z,101629.97
2023-04-07T15:09:14.512Z,101628.22
2023-04-07T15:11:46.566Z,101634.56
2023-04-07T15:14:16.071Z,101633.81
2023-04-07T15:16:50.283Z,101629.50
2023-04-07T15:19:21.977Z,101639.59
2023-04-07T15:21:53.578Z,101639.72
2023-04-07T15:24:22.185Z,101644.38
2023-04-07T15:26:52.646Z,101644.38
2023-04-07T15:29:19.541Z,101640.13
2023-04-07T15:31:48.996Z,101642.34
2023-04-07T15:34:15.912Z,101647.50
2023-04-07T15:36:42.850Z,101651.56
2023-04-07T15:39:09.779Z,101654.47
2023-04-07T15:41:38.362Z,101650.88
2023-04-07T15:44:05.637Z,101654.28
2023-04-07T15:46:32.763Z,101656.41
2023-04-07T15:49:02.730Z,101663.03
2023-04-07T15:51:34.866Z,101660.69
2023-04-07T15:54:04.335Z,101660.53
2023-04-07T15:56:31.299Z,101656.22
2023-04-07T15:59:01.427Z,101663.66
2023-04-07T16:01:28.932Z,101659.41
2023-04-07T16:03:56.085Z,101666.53
2023-04-07T16:06:27.947Z,101668.06
2023-04-07T16:08:57.147Z,101668.41
2023-04-07T16:11:24.125Z,101675.16
2023-04-07T16:13:51.258Z,101671.91
2023-04-07T16:16:21.496Z,101666.00
2023-04-07T16:18:51.927Z,101664.50
2023-04-07T16:21:18.914Z,101674.44
2023-04-07T16:23:45.948Z,101671.13
2023-04-07T16:26:13.154Z,101673.31
2023-04-07T16:28:41.996Z,101687.53
2023-04-07T16:31:09.015Z,101683.66
2023-04-07T16:33:39.142Z,101678.25
2023-04-07T16:36:11.582Z,101689.56
2023-04-07T16:38:38.555Z,101681.09
2023-04-07T16:41:08.259Z,101690.47
2023-04-07T16:43:35.322Z,101689.28
2023-04-07T16:46:08.032Z,101698.03
2023-04-07T16:48:37.567Z,101697.00
2023-04-07T16:51:04.876Z,101698.97
2023-04-07T16:53:31.956Z,101706.38
2023-04-07T16:55:58.993Z,101704.00
2023-04-07T16:58:26.168Z,101700.09
2023-04-07T17:00:55.500Z,101712.16
2023-04-07T17:03:22.602Z,101723.91
2023-04-07T17:05:54.243Z,101715.38
2023-04-07T17:08:26.020Z,101723.81
2023-04-07T17:10:53.001Z,101735.94
2023-04-07T17:13:22.771Z,101739.66
2023-04-07T17:15:54.806Z,101736.81
2023-04-07T17:18:24.704Z,101738.66
2023-04-07T17:20:52.039Z,101739.22
2023-04-07T17:23:21.690Z,101741.66
2023-04-07T17:25:51.816Z,101743.06
2023-04-07T17:28:21.086Z,101744.06
2023-04-07T17:30:50.704Z,101749.34
2023-04-07T17:33:19.853Z,101751.88
2023-04-07T17:35:49.671Z,101762.53
2023-04-07T17:38:16.958Z,101755.88
2023-04-07T17:40:46.248Z,101768.69
2023-04-07T17:43:13.294Z,101763.09
2023-04-07T17:45:40.566Z,101766.53
2023-04-07T17:48:12.036Z,101764.59
2023-04-07T17:50:39.329Z,101763.03
2023-04-07T17:53:06.606Z,101770.75
2023-04-07T17:55:36.533Z,101773.03
2023-04-07T17:58:06.540Z,101776.88
2023-04-07T18:00:35.936Z,101781.03
2023-04-07T18:03:05.820Z,101782.41
2023-04-07T18:05:35.695Z,101783.16
2023-04-07T18:08:03.159Z,101784.88
2023-04-07T18:10:30.320Z,101789.53
2023-04-07T18:12:57.561Z,101789.38
2023-04-07T18:15:24.629Z,101788.03
2023-04-07T18:17:53.236Z,101794.94
2023-04-07T18:20:20.608Z,101799.59
2023-04-07T18:22:50.905Z,101802.31
2023-04-07T18:25:18.181Z,101812.34
2023-04-07T18:27:47.304Z,101806.19
2023-04-07T18:30:16.730Z,101814.94
2023-04-07T18:32:44.573Z,101809.25
2023-04-07T18:35:11.893Z,101818.16
2023-04-07T18:37:38.948Z,101824.50
2023-04-07T18:40:12.497Z,101826.59
2023-04-07T18:42:42.893Z,101826.47
2023-04-07T18:45:10.474Z,101825.22
2023-04-07T18:47:37.647Z,101828.84
2023-04-07T18:50:05.706Z,101835.59
2023-04-07T18:52:35.189Z,101833.13
2023-04-07T18:55:02.921Z,101846.16
2023-04-07T18:57:29.912Z,101832.56
2023-04-07T18:59:56.890Z,101839.41
2023-04-07T19:02:24.167Z,101837.97
2023-04-07T19:04:51.460Z,101847.28
2023-04-07T19:07:21.051Z,101842.56
2023-04-07T19:09:51.390Z,101856.91
2023-04-07T19:12:20.791Z,101853.81
2023-04-07T19:14:48.032Z,101858.09
2023-04-07T19:17:15.096Z,101856.38
2023-04-07T19:19:42.184Z,101851.19
2023-04-07T19:22:09.234Z,101857.56
2023-04-07T19:24:41.661Z,101863.97
2023-04-07T19:27:14.020Z,101861.94
2023-04-07T19:29:43.542Z,101848.81
2023-04-07T19:32:13.085Z,101854.28
2023-04-07T19:34:44.731Z,101858.50
2023-04-07T19:37:14.205Z,101864.13
2023-04-07T19:39:46.920Z,101866.28
2023-04-07T19:42:21.722Z,101859.81
2023-04-07T19:44:48.730Z,101863.25
2023-04-07T19:47:18.064Z,101869.38
2023-04-07T19:49:46.163Z,101860.88
2023-04-07T19:52:13.262Z,101853.72
2023-04-07T19:54:40.415Z,101861.34
2023-04-07T19:57:07.601Z,101871.75
2023-04-07T19:59:37.739Z,101861.75
2023-04-07T20:02:07.220Z,101862.72
2023-04-07T20:04:34.663Z,101854.81
2023-04-07T20:07:02.398Z,101864.44
2023-04-07T20:09:29.496Z,101871.38
2023-04-07T20:11:59.539Z,101875.09
2023-04-07T20:14:26.543Z,101872.69
2023-04-07T20:16:54.210Z,101882.78
2023-04-07T20:19:21.374Z,101877.59
2023-04-07T20:21:50.593Z,101873.31
2023-04-07T20:24:19.732Z,101890.31
2023-04-07T20:26:46.742Z,101888.78
2023-04-07T20:29:13.708Z,101883.09
2023-04-07T20:31:41.259Z,101893.47
2023-04-07T20:34:08.278Z,101889.91
2023-04-07T20:36:37.759Z,101895.19
2023-04-07T20:39:06.928Z,101893.59
2023-04-07T20:41:34.034Z,101892.88
2023-04-07T20:44:05.572Z,101900.34
2023-04-07T20:46:33.477Z,101895.84
2023-04-07T20:49:00.903Z,101893.31
2023-04-07T20:51:30.652Z,101896.25
2023-04-07T20:53:57.747Z,101897.78
2023-04-07T20:56:24.725Z,101897.84
2023-04-07T20:58:51.923Z,101899.84
2023-04-07T21:01:18.853Z,101900.88
2023-04-07T21:03:48.203Z,101904.25
2023-04-07T21:06:17.853Z,101902.25
2023-04-07T21:08:47.830Z,101898.03
2023-04-07T21:11:15.096Z,101903.44
2023-04-07T21:13:44.300Z,101900.59
2023-04-07T21:16:11.556Z,101902.06
2023-04-07T21:18:43.262Z,101900.09
2023-04-07T21:21:10.463Z,101904.78
2023-04-07T21:23:37.415Z,101904.69
2023-04-07T21:26:04.593Z,101898.44
2023-04-07T21:28:31.546Z,101896.72
2023-04-07T21:31:03.963Z,101895.75
2023-04-07T21:33:33.358Z,101899.38
2023-04-07T21:36:03.919Z,101902.13
2023-04-07T21:38:31.552Z,101891.31
2023-04-07T21:40:58.585Z,101897.91
2023-04-07T21:43:28.678Z,101895.34
2023-04-07T21:45:57.900Z,101900.44
2023-04-07T21:48:24.938Z,101901.03
2023-04-07T21:50:55.030Z,101899.75
2023-04-07T21:53:24.687Z,101896.31
2023-04-07T21:55:56.508Z,101899.75
2023-04-07T21:58:26.477Z,101894.22
2023-04-07T22:00:54.126Z,101891.50
2023-04-07T22:03:21.988Z,101896.88
2023-04-07T22:05:49.261Z,101887.56
2023-04-07T22:08:16.723Z,101894.75
2023-04-07T22:10:43.919Z,101892.19
2023-04-07T22:13:11.096Z,101895.72
2023-04-07T22:15:40.968Z,101892.41
2023-04-07T22:18:08.961Z,101893.03
2023-04-07T22:20:36.153Z,101883.06
2023-04-07T22:23:03.108Z,101890.44
2023-04-07T22:25:30.116Z,101896.19
2023-04-07T22:27:57.283Z,101895.16
2023-04-07T22:30:24.727Z,101890.91
2023-04-07T22:32:54.884Z,101891.75
2023-04-07T22:35:21.913Z,101898.50
2023-04-07T22:37:51.169Z,101894.16
2023-04-07T22:40:18.215Z,101902.66
2023-04-07T22:42:45.265Z,101903.75
2023-04-07T22:45:17.903Z,101900.44
2023-04-07T22:47:47.382Z,101901.25
2023-04-07T22:50:14.563Z,101896.66
2023-04-07T22:52:41.679Z,101899.06
2023-04-07T22:55:09.107Z,101905.09
2023-04-07T22:57:38.650Z,101898.72
2023-04-07T23:00:06.815Z,101912.63
2023-04-07T23:02:33.817Z,101909.38
2023-04-07T23:05:01.099Z,101913.56
2023-04-07T23:07:28.141Z,101914.78
2023-04-07T23:09:55.412Z,101915.06
2023-04-07T23:12:24.871Z,101900.09
2023-04-07T23:14:52.631Z,101901.97
2023-04-07T23:17:19.806Z,101907.72
2023-04-07T23:19:46.801Z,101906.88
2023-04-07T23:22:13.776Z,101900.59
2023-04-07T23:24:41.611Z,101913.75
2023-04-07T23:27:08.577Z,101916.97
2023-04-07T23:29:36.205Z,101911.44
2023-04-07T23:32:03.172Z,101917.91
2023-04-07T23:34:30.403Z,101910.81
2023-04-07T23:36:59.540Z,101913.13
2023-04-07T23:39:26.648Z,101915.72
2023-04-07T23:41:53.755Z,101916.91
2023-04-07T23:44:20.942Z,101916.31
2023-04-07T23:46:48.323Z,101907.78
2023-04-07T23:49:15.321Z,101912.34
2023-04-07T23:51:46.874Z,101917.28
2023-04-07T23:54:13.941Z,101911.16
2023-04-07T23:56:41.506Z,101912.50
2023-04-07T23:59:08.504Z,101916.22
